Time;durP1;ratioP1;P1;durP2;ratioP2;P2;SDS_P1;SDS_P2;PMS_P1;PMS_P2;Temp;Humidity;BMP_temperature;BMP_pressure;BME280_temperature;BME280_humidity;BME280_pressure;Samples;Min_cycle;Max_cycle;Signal;HPM_P1;HPM_P2
2021/08/17 00:01:59;;;;;;;3.13;1.73;;;;;;;;;;4918803;29;20197;-89
2021/08/17 00:04:28;;;;;;;3.03;2.03;;;;;;;;;;4915072;29;20682;-89
2021/08/17 00:06:58;;;;;;;4.10;2.10;;;;;;;;;;4900121;29;20276;-89
2021/08/17 00:09:25;;;;;;;1.80;1.70;;;;;;;;;;4900047;29;20775;-89
2021/08/17 00:11:53;;;;;;;4.82;2.22;;;;;;;;;;4899520;29;20217;-87
2021/08/17 00:14:20;;;;;;;5.43;3.03;;;;;;;;;;4901393;29;20648;-87
2021/08/17 00:16:48;;;;;;;2.70;1.50;;;;;;;;;;4917843;29;20657;-89
2021/08/17 00:19:15;;;;;;;1.95;1.63;;;;;;;;;;4917962;29;20226;-89
2021/08/17 00:21:44;;;;;;;3.20;1.83;;;;;;;;;;4918142;29;20661;-89
2021/08/17 00:24:13;;;;;;;5.45;2.53;;;;;;;;;;4918317;29;20233;-89
2021/08/17 00:26:41;;;;;;;1.92;1.70;;;;;;;;;;4918383;29;20191;-88
2021/08/17 00:29:09;;;;;;;2.22;1.88;;;;;;;;;;4917207;29;20191;-88
2021/08/17 00:31:36;;;;;;;4.15;1.63;;;;;;;;;;4917929;29;20199;-89
2021/08/17 00:34:04;;;;;;;3.60;1.83;;;;;;;;;;4917997;29;20190;-88
2021/08/17 00:36:32;;;;;;;2.40;1.65;;;;;;;;;;4933207;29;20241;-87
2021/08/17 00:39:01;;;;;;;4.07;2.35;;;;;;;;;;4920422;29;20218;-87
2021/08/17 00:41:30;;;;;;;4.63;2.30;;;;;;;;;;4917151;29;20206;-88
2021/08/17 00:43:57;;;;;;;3.75;1.90;;;;;;;;;;4917082;29;20203;-88
2021/08/17 00:46:32;;;;;;;3.63;1.92;;;;;;;;;;4916952;29;20670;-89
2021/08/17 00:49:01;;;;;;;5.68;1.90;;;;;;;;;;4917195;29;20194;-88
2021/08/17 00:51:28;;;;;;;2.08;1.88;;;;;;;;;;4917307;29;20193;-87
2021/08/17 00:53:57;;;;;;;2.70;1.75;;;;;;;;;;4916985;29;20202;-89
2021/08/17 00:56:24;;;;;;;4.15;2.92;;;;;;;;;;4916948;29;20301;-89
2021/08/17 00:58:54;;;;;;;3.53;2.40;;;;;;;;;;4917118;29;20187;-88
2021/08/17 01:01:22;;;;;;;3.83;1.58;;;;;;;;;;4916802;29;20218;-90
2021/08/17 01:03:50;;;;;;;2.47;1.60;;;;;;;;;;4916985;29;20221;-90
2021/08/17 01:06:17;;;;;;;1.75;1.60;;;;;;;;;;4916840;29;20206;-90
2021/08/17 01:08:45;;;;;;;4.05;2.20;;;;;;;;;;4916938;29;20694;-90
2021/08/17 01:11:13;;;;;;;4.00;2.90;;;;;;;;;;4916946;29;20204;-89
2021/08/17 01:13:43;;;;;;;2.53;2.17;;;;;;;;;;4916874;29;20195;-89
2021/08/17 01:16:12;;;;;;;3.95;2.03;;;;;;;;;;4929336;29;20236;-89
2021/08/17 01:18:40;;;;;;;2.63;1.80;;;;;;;;;;4916822;29;20229;-90
2021/08/17 01:21:09;;;;;;;1.58;1.45;;;;;;;;;;4916424;29;20613;-89
2021/08/17 01:23:36;;;;;;;1.90;1.50;;;;;;;;;;4916912;29;20214;-89
2021/08/17 01:26:07;;;;;;;4.85;2.03;;;;;;;;;;4916639;29;20760;-90
2021/08/17 01:28:36;;;;;;;2.45;2.20;;;;;;;;;;4916619;29;20185;-91
2021/08/17 01:31:24;;;;;;;3.72;2.10;;;;;;;;;;4916899;29;20624;-91
2021/08/17 01:33:52;;;;;;;2.75;1.55;;;;;;;;;;4917427;29;20293;-90
2021/08/17 01:36:20;;;;;;;3.28;2.05;;;;;;;;;;4853080;29;1430810;-88
2021/08/17 01:38:49;;;;;;;2.80;2.13;;;;;;;;;;4915099;29;20199;-89
2021/08/17 01:41:20;;;;;;;3.95;3.60;;;;;;;;;;4917714;29;20274;-89
2021/08/17 01:43:54;;;;;;;8.88;2.83;;;;;;;;;;4916169;29;20209;-89
2021/08/17 01:46:21;;;;;;;6.32;2.40;;;;;;;;;;4916401;29;20582;-89
2021/08/17 01:48:50;;;;;;;3.22;2.15;;;;;;;;;;4916890;29;20250;-89
2021/08/17 01:51:17;;;;;;;2.88;2.38;;;;;;;;;;4917274;29;20198;-90
2021/08/17 01:53:45;;;;;;;2.53;2.10;;;;;;;;;;4917156;29;20190;-89
2021/08/17 01:56:15;;;;;;;2.95;2.38;;;;;;;;;;4916741;29;20309;-89
2021/08/17 01:58:45;;;;;;;1.80;1.70;;;;;;;;;;4916794;29;20197;-89
2021/08/17 02:01:14;;;;;;;1.75;1.65;;;;;;;;;;4916661;29;20685;-88
2021/08/17 02:03:42;;;;;;;2.38;1.85;;;;;;;;;;4920959;29;20202;-89
2021/08/17 02:06:11;;;;;;;2.33;2.00;;;;;;;;;;4917138;29;20222;-89
2021/08/17 02:08:47;;;;;;;3.45;2.55;;;;;;;;;;4916647;29;20183;-90
2021/08/17 02:11:21;;;;;;;4.70;2.42;;;;;;;;;;4916706;29;20186;-88
2021/08/17 02:13:51;;;;;;;3.97;2.28;;;;;;;;;;4917143;29;20194;-89
2021/08/17 02:16:21;;;;;;;4.43;2.85;;;;;;;;;;4917084;29;20217;-91
2021/08/17 02:18:48;;;;;;;3.78;2.30;;;;;;;;;;4917186;29;20668;-89
2021/08/17 02:21:16;;;;;;;3.05;2.30;;;;;;;;;;4914358;29;20218;-89
2021/08/17 02:23:44;;;;;;;2.28;2.08;;;;;;;;;;4897866;29;20187;-90
2021/08/17 02:26:12;;;;;;;2.72;1.90;;;;;;;;;;4914534;29;20229;-91
2021/08/17 02:28:40;;;;;;;2.88;2.20;;;;;;;;;;4916989;29;20197;-90
2021/08/17 02:31:19;;;;;;;3.03;2.15;;;;;;;;;;4916919;29;20273;-91
2021/08/17 02:33:52;;;;;;;3.72;1.80;;;;;;;;;;4916622;29;20200;-90
2021/08/17 02:36:21;;;;;;;3.33;2.20;;;;;;;;;;4916033;29;20252;-89
2021/08/17 02:38:49;;;;;;;2.72;2.05;;;;;;;;;;4916551;29;20182;-90
2021/08/17 02:41:23;;;;;;;3.88;2.20;;;;;;;;;;4916109;29;20217;-90
2021/08/17 02:43:51;;;;;;;8.85;3.47;;;;;;;;;;4916373;29;20187;-89
2021/08/17 02:46:20;;;;;;;4.32;3.78;;;;;;;;;;4916212;29;20202;-90
2021/08/17 02:48:49;;;;;;;4.50;3.22;;;;;;;;;;4916482;29;20214;-89
2021/08/17 02:51:17;;;;;;;2.28;2.08;;;;;;;;;;4917733;29;20186;-90
2021/08/17 02:53:45;;;;;;;3.88;2.33;;;;;;;;;;4916935;29;20219;-88
2021/08/17 02:56:25;;;;;;;3.00;2.40;;;;;;;;;;4916606;29;20234;-90
2021/08/17 02:58:53;;;;;;;4.13;2.17;;;;;;;;;;4917947;29;20269;-88
2021/08/17 03:01:23;;;;;;;3.60;2.08;;;;;;;;;;4920167;29;20229;-88
2021/08/17 03:03:52;;;;;;;3.67;2.08;;;;;;;;;;4919706;29;20661;-87
2021/08/17 03:06:19;;;;;;;2.50;2.00;;;;;;;;;;4919183;29;20218;-87
2021/08/17 03:08:47;;;;;;;3.67;2.05;;;;;;;;;;4920561;29;20194;-88
2021/08/17 03:11:20;;;;;;;5.88;2.40;;;;;;;;;;4920050;29;20579;-88
2021/08/17 03:13:47;;;;;;;2.10;1.77;;;;;;;;;;4920024;29;20202;-87
2021/08/17 03:16:15;;;;;;;5.57;2.47;;;;;;;;;;4920244;29;20210;-89
2021/08/17 03:18:44;;;;;;;3.17;2.15;;;;;;;;;;4920580;29;20217;-88
2021/08/17 03:21:12;;;;;;;4.38;2.17;;;;;;;;;;4919674;29;20693;-87
2021/08/17 03:23:40;;;;;;;2.03;1.83;;;;;;;;;;4919602;29;20203;-89
2021/08/17 03:26:09;;;;;;;4.10;2.35;;;;;;;;;;4918855;29;20230;-87
2021/08/17 03:28:36;;;;;;;2.63;1.90;;;;;;;;;;4919506;29;20191;-89
2021/08/17 03:31:06;;;;;;;2.67;1.90;;;;;;;;;;4919660;29;20582;-88
2021/08/17 03:33:33;;;;;;;2.53;1.98;;;;;;;;;;4919745;29;20191;-89
2021/08/17 03:36:04;;;;;;;3.15;1.98;;;;;;;;;;4925122;29;20230;-88
2021/08/17 03:38:32;;;;;;;6.43;3.15;;;;;;;;;;4919736;29;20203;-89
2021/08/17 03:41:01;;;;;;;3.50;2.20;;;;;;;;;;4919577;29;20249;-89
2021/08/17 03:43:28;;;;;;;4.78;2.42;;;;;;;;;;4919365;29;20197;-89
2021/08/17 03:45:57;;;;;;;5.78;2.25;;;;;;;;;;4918865;29;20228;-88
2021/08/17 03:48:25;;;;;;;4.00;2.35;;;;;;;;;;4919322;29;20213;-88
2021/08/17 03:50:52;;;;;;;5.78;2.50;;;;;;;;;;4918577;29;20214;-87
2021/08/17 03:53:21;;;;;;;3.60;2.00;;;;;;;;;;4919098;29;20191;-88
2021/08/17 03:55:49;;;;;;;3.20;2.08;;;;;;;;;;4918531;29;20729;-89
2021/08/17 03:58:16;;;;;;;3.88;2.67;;;;;;;;;;4919149;29;20198;-88
2021/08/17 04:00:44;;;;;;;5.47;1.98;;;;;;;;;;4918660;29;20685;-90
2021/08/17 04:03:12;;;;;;;4.32;3.25;;;;;;;;;;4918760;29;20205;-88
2021/08/17 04:05:40;;;;;;;8.80;4.40;;;;;;;;;;4918068;29;20219;-88
2021/08/17 04:08:08;;;;;;;4.28;1.98;;;;;;;;;;4918754;29;20194;-87
2021/08/17 04:10:38;;;;;;;5.80;2.42;;;;;;;;;;4918776;29;20294;-88
2021/08/17 04:13:05;;;;;;;2.05;1.52;;;;;;;;;;4918525;29;20232;-89
2021/08/17 04:15:33;;;;;;;4.40;2.08;;;;;;;;;;4918675;29;20230;-87
2021/08/17 04:18:00;;;;;;;4.00;1.80;;;;;;;;;;4919711;29;20214;-85
2021/08/17 04:20:28;;;;;;;2.63;1.70;;;;;;;;;;4919417;29;20210;-86
2021/08/17 04:22:56;;;;;;;9.60;3.85;;;;;;;;;;4920162;29;20323;-86
2021/08/17 04:25:23;;;;;;;3.05;2.08;;;;;;;;;;4930610;29;20368;-86
2021/08/17 04:27:52;;;;;;;7.50;2.75;;;;;;;;;;4939439;29;20214;-84
2021/08/17 04:30:19;;;;;;;4.05;2.20;;;;;;;;;;4939746;29;20194;-86
2021/08/17 04:32:47;;;;;;;4.18;2.30;;;;;;;;;;4938937;29;20190;-83
2021/08/17 04:35:15;;;;;;;5.50;2.00;;;;;;;;;;4919754;29;20725;-84
2021/08/17 04:37:43;;;;;;;4.70;2.67;;;;;;;;;;4901266;29;20655;-84
2021/08/17 04:40:11;;;;;;;2.58;1.58;;;;;;;;;;4901438;29;20574;-84
2021/08/17 04:42:39;;;;;;;1.83;1.67;;;;;;;;;;4900962;29;20208;-85
2021/08/17 04:45:10;;;;;;;3.47;2.10;;;;;;;;;;4909716;29;20586;-84
2021/08/17 04:47:45;;;;;;;6.50;3.05;;;;;;;;;;4919489;29;20209;-85
2021/08/17 04:50:13;;;;;;;2.05;1.77;;;;;;;;;;4924237;29;20192;-85
2021/08/17 04:52:41;;;;;;;4.30;2.00;;;;;;;;;;4918206;29;20198;-86
2021/08/17 04:55:10;;;;;;;3.20;1.67;;;;;;;;;;4902978;29;20226;-86
2021/08/17 04:57:51;;;;;;;3.00;1.58;;;;;;;;;;4898557;29;20207;-88
2021/08/17 05:00:20;;;;;;;3.00;1.90;;;;;;;;;;4898952;29;20710;-86
2021/08/17 05:02:47;;;;;;;2.35;1.40;;;;;;;;;;4897933;29;20222;-86
2021/08/17 05:05:15;;;;;;;3.33;1.70;;;;;;;;;;4899282;29;20219;-85
2021/08/17 05:07:43;;;;;;;2.83;2.03;;;;;;;;;;4899398;29;20210;-86
2021/08/17 05:10:14;;;;;;;3.20;1.65;;;;;;;;;;4899912;29;20192;-85
2021/08/17 05:12:42;;;;;;;3.80;1.90;;;;;;;;;;4906680;29;20658;-87
2021/08/17 05:15:12;;;;;;;3.70;2.08;;;;;;;;;;4917275;29;20215;-87
2021/08/17 05:17:42;;;;;;;7.47;2.00;;;;;;;;;;4905554;29;20187;-85
2021/08/17 05:20:12;;;;;;;4.97;2.30;;;;;;;;;;4899129;29;20190;-86
2021/08/17 05:22:39;;;;;;;3.03;1.45;;;;;;;;;;4899546;29;20650;-90
2021/08/17 05:25:09;;;;;;;7.32;2.88;;;;;;;;;;4909330;29;20226;-87
2021/08/17 05:27:37;;;;;;;4.05;2.08;;;;;;;;;;4917511;29;20202;-87
2021/08/17 05:30:06;;;;;;;2.75;2.20;;;;;;;;;;4909350;29;20188;-88
2021/08/17 05:32:34;;;;;;;5.57;1.85;;;;;;;;;;4898583;29;20302;-87
2021/08/17 05:35:03;;;;;;;2.78;1.75;;;;;;;;;;4910252;29;20617;-87
2021/08/17 05:37:31;;;;;;;3.10;1.80;;;;;;;;;;4936626;29;20206;-87
2021/08/17 05:39:58;;;;;;;2.22;1.65;;;;;;;;;;4935955;29;20205;-87
2021/08/17 05:42:26;;;;;;;4.63;2.33;;;;;;;;;;4936006;29;20229;-86
2021/08/17 05:44:54;;;;;;;3.08;2.78;;;;;;;;;;4922987;29;20226;-86
2021/08/17 05:47:23;;;;;;;3.28;2.10;;;;;;;;;;4917350;29;20201;-87
2021/08/17 05:49:50;;;;;;;2.47;1.48;;;;;;;;;;4917236;29;20190;-85
2021/08/17 05:52:19;;;;;;;3.58;1.38;;;;;;;;;;4916780;29;20206;-86
2021/08/17 05:54:47;;;;;;;6.20;2.65;;;;;;;;;;4922344;29;20218;-87
2021/08/17 05:57:14;;;;;;;4.25;2.20;;;;;;;;;;4935651;29;20637;-85
2021/08/17 05:59:42;;;;;;;1.83;1.63;;;;;;;;;;4936472;29;20186;-86
2021/08/17 06:02:10;;;;;;;3.95;1.73;;;;;;;;;;4937370;29;20213;-85
2021/08/17 06:04:40;;;;;;;7.80;2.30;;;;;;;;;;4926371;29;20238;-85
2021/08/17 06:07:08;;;;;;;4.18;1.60;;;;;;;;;;4916868;29;20661;-86
2021/08/17 06:09:36;;;;;;;2.03;1.52;;;;;;;;;;4916971;29;20209;-85
2021/08/17 06:12:05;;;;;;;8.18;3.78;;;;;;;;;;4916762;29;20202;-85
2021/08/17 06:14:32;;;;;;;4.13;2.28;;;;;;;;;;4922067;29;20223;-87
2021/08/17 06:17:00;;;;;;;2.40;1.63;;;;;;;;;;4911817;29;20195;-86
2021/08/17 06:19:28;;;;;;;4.43;2.10;;;;;;;;;;4906557;29;20608;-85
2021/08/17 06:21:55;;;;;;;2.58;2.10;;;;;;;;;;4917556;29;20210;-86
2021/08/17 06:24:22;;;;;;;5.72;2.53;;;;;;;;;;4915799;29;20248;-85
2021/08/17 06:26:51;;;;;;;2.63;2.17;;;;;;;;;;4903951;29;20191;-86
2021/08/17 06:29:19;;;;;;;3.90;2.25;;;;;;;;;;4899310;29;20202;-85
2021/08/17 06:31:47;;;;;;;4.90;2.35;;;;;;;;;;4913353;29;20209;-86
2021/08/17 06:34:14;;;;;;;4.57;1.95;;;;;;;;;;4918213;29;20222;-83
2021/08/17 06:36:42;;;;;;;4.00;3.60;;;;;;;;;;4917297;29;20242;-86
2021/08/17 06:39:10;;;;;;;4.57;1.92;;;;;;;;;;4918179;29;20202;-86
2021/08/17 06:41:37;;;;;;;3.15;1.80;;;;;;;;;;4918154;29;20194;-86
2021/08/17 06:44:06;;;;;;;3.42;2.10;;;;;;;;;;4917381;29;20226;-85
2021/08/17 06:46:46;;;;;;;3.47;2.42;;;;;;;;;;4898887;29;20215;-84
2021/08/17 06:49:13;;;;;;;5.25;3.63;;;;;;;;;;4900575;29;20226;-85
2021/08/17 06:51:41;;;;;;;2.40;1.88;;;;;;;;;;4900308;29;20221;-86
2021/08/17 06:54:08;;;;;;;3.42;2.30;;;;;;;;;;4901949;29;20709;-86
2021/08/17 06:56:36;;;;;;;2.05;1.63;;;;;;;;;;4898083;29;20643;-86
2021/08/17 06:59:05;;;;;;;6.43;1.70;;;;;;;;;;4898999;29;20207;-86
2021/08/17 07:01:40;;;;;;;4.45;3.03;;;;;;;;;;4912607;29;20650;-86
2021/08/17 07:04:08;;;;;;;2.30;2.10;;;;;;;;;;4918747;29;20217;-83
2021/08/17 07:06:36;;;;;;;3.15;1.70;;;;;;;;;;4918397;29;20203;-85
2021/08/17 07:11:59;;;;;;;2.78;1.92;;;;;;;;;;4877592;29;20735;-83
2021/08/17 07:14:28;;;;;;;3.63;2.38;;;;;;;;;;4876810;29;20242;-84
2021/08/17 07:16:55;;;;;;;7.30;2.97;;;;;;;;;;4878542;29;20214;-87
2021/08/17 07:19:31;;;;;;;4.85;1.98;;;;;;;;;;4878520;29;20185;-84
2021/08/17 07:22:18;;;;;;;4.97;2.03;;;;;;;;;;4879548;29;20196;-85
2021/08/17 07:24:47;;;;;;;3.72;2.47;;;;;;;;;;4883813;29;20734;-84
2021/08/17 07:27:15;;;;;;;5.38;3.47;;;;;;;;;;4898796;29;20574;-85
2021/08/17 07:29:44;;;;;;;3.83;2.63;;;;;;;;;;4898843;29;20210;-81
2021/08/17 07:32:11;;;;;;;2.83;2.10;;;;;;;;;;4887207;29;20198;-85
2021/08/17 07:34:38;;;;;;;3.70;2.22;;;;;;;;;;4882610;29;20219;-84
2021/08/17 07:37:24;;;;;;;6.75;2.25;;;;;;;;;;4896868;29;20207;-83
2021/08/17 07:39:51;;;;;;;4.95;2.30;;;;;;;;;;4879696;29;20634;-83
2021/08/17 07:42:19;;;;;;;4.13;1.92;;;;;;;;;;4877852;29;20204;-81
2021/08/17 07:44:47;;;;;;;4.80;2.03;;;;;;;;;;4884825;29;20227;-82
2021/08/17 07:47:15;;;;;;;2.63;2.20;;;;;;;;;;4900348;29;20188;-82
2021/08/17 07:49:42;;;;;;;5.35;2.25;;;;;;;;;;4910273;29;20689;-82
2021/08/17 07:52:10;;;;;;;2.83;2.13;;;;;;;;;;4919441;29;20210;-82
2021/08/17 07:54:37;;;;;;;5.07;2.38;;;;;;;;;;4920519;29;20218;-82
2021/08/17 07:57:05;;;;;;;3.35;2.33;;;;;;;;;;4920159;29;20203;-82
2021/08/17 07:59:33;;;;;;;2.35;1.70;;;;;;;;;;4921704;29;20202;-82
2021/08/17 08:02:02;;;;;;;2.25;1.90;;;;;;;;;;4915996;29;20202;-82
2021/08/17 08:04:30;;;;;;;2.15;1.80;;;;;;;;;;4920756;29;20286;-81
2021/08/17 08:06:58;;;;;;;2.33;1.80;;;;;;;;;;4919333;29;20300;-82
2021/08/17 08:09:26;;;;;;;2.13;1.63;;;;;;;;;;4919023;29;20298;-82
2021/08/17 08:11:53;;;;;;;4.20;2.22;;;;;;;;;;4920673;29;20209;-81
2021/08/17 08:14:20;;;;;;;3.13;2.30;;;;;;;;;;4921438;29;20226;-81
2021/08/17 08:17:06;;;;;;;4.03;2.60;;;;;;;;;;4920733;29;20567;-80
2021/08/17 08:19:35;;;;;;;4.72;3.10;;;;;;;;;;4910784;29;20234;-82
2021/08/17 08:22:03;;;;;;;5.50;2.42;;;;;;;;;;4913068;29;20685;-83
2021/08/17 08:24:31;;;;;;;3.60;2.50;;;;;;;;;;4915039;29;20235;-82
2021/08/17 08:26:58;;;;;;;2.42;2.22;;;;;;;;;;4903330;29;20227;-82
2021/08/17 08:29:30;;;;;;;2.60;2.40;;;;;;;;;;4900629;29;20215;-82
2021/08/17 08:31:58;;;;;;;5.18;3.40;;;;;;;;;;4911456;29;20202;-83
2021/08/17 08:34:26;;;;;;;3.40;2.20;;;;;;;;;;4922170;29;20232;-81
2021/08/17 08:36:54;;;;;;;5.03;2.53;;;;;;;;;;4921408;29;20246;-84
2021/08/17 08:39:22;;;;;;;3.58;2.42;;;;;;;;;;4919310;29;20217;-82
2021/08/17 08:41:50;;;;;;;3.95;2.83;;;;;;;;;;4910376;29;20267;-82
2021/08/17 08:44:18;;;;;;;3.17;2.70;;;;;;;;;;4903913;29;20231;-84
2021/08/17 08:46:52;;;;;;;3.88;3.13;;;;;;;;;;4920304;29;20230;-83
2021/08/17 08:49:22;;;;;;;4.50;2.10;;;;;;;;;;4911664;29;20231;-84
2021/08/17 08:51:49;;;;;;;4.10;2.67;;;;;;;;;;4919042;29;20206;-84
2021/08/17 08:54:18;;;;;;;2.60;2.28;;;;;;;;;;4919979;29;20233;-84
2021/08/17 08:56:46;;;;;;;5.32;2.40;;;;;;;;;;4937736;29;20210;-85
2021/08/17 08:59:14;;;;;;;4.63;3.28;;;;;;;;;;4919699;29;20202;-85
2021/08/17 09:01:41;;;;;;;4.82;2.70;;;;;;;;;;4919798;29;20202;-84
2021/08/17 09:04:09;;;;;;;3.53;3.13;;;;;;;;;;4917407;29;20236;-84
2021/08/17 09:06:55;;;;;;;3.17;2.60;;;;;;;;;;4900211;29;20183;-84
2021/08/17 09:09:24;;;;;;;3.08;2.17;;;;;;;;;;4900925;29;20211;-84
2021/08/17 09:11:54;;;;;;;2.80;2.50;;;;;;;;;;4918599;29;20198;-85
2021/08/17 09:14:24;;;;;;;2.72;2.53;;;;;;;;;;4917810;29;20228;-84
2021/08/17 09:16:54;;;;;;;3.50;2.40;;;;;;;;;;4918382;29;20213;-85
2021/08/17 09:19:33;;;;;;;3.47;2.58;;;;;;;;;;4917046;29;20210;-85
2021/08/17 09:22:03;;;;;;;3.50;2.17;;;;;;;;;;4916846;29;20199;-83
2021/08/17 09:24:35;;;;;;;1.70;1.58;;;;;;;;;;4918223;29;20226;-83
2021/08/17 09:27:05;;;;;;;2.67;2.47;;;;;;;;;;4918063;29;20199;-83
2021/08/17 09:29:35;;;;;;;3.30;2.50;;;;;;;;;;4917935;29;20201;-85
2021/08/17 09:32:14;;;;;;;3.10;2.35;;;;;;;;;;4919119;29;20186;-84
2021/08/17 09:34:47;;;;;;;2.78;2.53;;;;;;;;;;4920155;29;20214;-84
2021/08/17 09:37:15;;;;;;;2.83;2.42;;;;;;;;;;4937688;29;20218;-83
2021/08/17 09:39:48;;;;;;;4.55;3.58;;;;;;;;;;4937835;29;20197;-84
2021/08/17 09:42:22;;;;;;;3.88;3.38;;;;;;;;;;4919724;29;20195;-83
2021/08/17 09:45:15;;;;;;;3.47;3.03;;;;;;;;;;4910500;29;20237;-85
2021/08/17 09:47:45;;;;;;;5.03;3.78;;;;;;;;;;4918981;29;20212;-86
2021/08/17 09:50:27;;;;;;;5.78;3.17;;;;;;;;;;4911116;29;20207;-85
2021/08/17 09:53:11;;;;;;;3.17;2.88;;;;;;;;;;4901442;29;20206;-84
2021/08/17 09:56:13;;;;;;;5.47;3.50;;;;;;;;;;4925129;29;20248;-85
2021/08/17 09:58:41;;;;;;;3.83;3.15;;;;;;;;;;4936883;29;20207;-84
2021/08/17 10:01:12;;;;;;;3.83;3.45;;;;;;;;;;4937139;29;20190;-86
2021/08/17 10:03:39;;;;;;;4.55;2.85;;;;;;;;;;4937050;29;20704;-84
2021/08/17 10:06:08;;;;;;;4.70;3.97;;;;;;;;;;4919674;29;20226;-87
2021/08/17 10:08:37;;;;;;;3.92;3.53;;;;;;;;;;4917112;29;20201;-84
2021/08/17 10:11:05;;;;;;;4.65;4.05;;;;;;;;;;4903976;29;20558;-84
2021/08/17 10:13:34;;;;;;;7.50;3.35;;;;;;;;;;4898699;29;20195;-84
2021/08/17 10:16:01;;;;;;;3.25;2.95;;;;;;;;;;4930098;29;20257;-84
2021/08/17 10:18:31;;;;;;;5.35;4.10;;;;;;;;;;4937496;29;20196;-85
2021/08/17 10:21:02;;;;;;;4.15;3.42;;;;;;;;;;4937211;29;20194;-84
2021/08/17 10:23:36;;;;;;;7.40;4.80;;;;;;;;;;4937460;29;20626;-86
2021/08/17 10:26:04;;;;;;;3.92;3.50;;;;;;;;;;4920496;29;20268;-86
2021/08/17 10:28:35;;;;;;;4.05;3.17;;;;;;;;;;4917164;29;20664;-86
2021/08/17 10:31:26;;;;;;;4.22;3.83;;;;;;;;;;4917674;29;20660;-86
2021/08/17 10:34:14;;;;;;;3.42;2.95;;;;;;;;;;4914861;29;20206;-84
2021/08/17 10:36:43;;;;;;;4.10;3.70;;;;;;;;;;4898296;29;20732;-84
2021/08/17 10:39:32;;;;;;;4.22;3.83;;;;;;;;;;4898750;29;20729;-86
2021/08/17 10:42:33;;;;;;;4.57;3.70;;;;;;;;;;4899450;29;20267;-86
2021/08/17 10:45:29;;;;;;;6.45;5.85;;;;;;;;;;4906578;29;20241;-85
2021/08/17 10:47:57;;;;;;;5.20;3.80;;;;;;;;;;4918387;29;20202;-85
2021/08/17 10:50:35;;;;;;;4.20;3.78;;;;;;;;;;4918137;29;20197;-85
2021/08/17 10:53:47;;;;;;;4.95;4.40;;;;;;;;;;4919264;29;20179;-85
2021/08/17 10:56:16;;;;;;;4.82;4.35;;;;;;;;;;4889460;29;20608;-85
2021/08/17 10:58:46;;;;;;;5.38;3.95;;;;;;;;;;4899326;29;20219;-86
2021/08/17 11:01:16;;;;;;;5.00;3.92;;;;;;;;;;4899116;29;20195;-84
2021/08/17 11:07:32;;;;;;;4.65;4.07;;;;;;;;;;4879701;29;20298;-86
2021/08/17 11:10:04;;;;;;;4.32;3.92;;;;;;;;;;4898643;29;20195;-85
2021/08/17 11:12:34;;;;;;;5.25;4.75;;;;;;;;;;4898699;29;20215;-87
2021/08/17 11:15:05;;;;;;;4.47;3.95;;;;;;;;;;4909114;29;20229;-84
2021/08/17 11:17:35;;;;;;;5.97;5.25;;;;;;;;;;4916827;29;20650;-85
2021/08/17 11:20:05;;;;;;;5.63;5.03;;;;;;;;;;4919066;29;20202;-85
2021/08/17 11:22:36;;;;;;;4.55;3.80;;;;;;;;;;4920976;29;20556;-84
2021/08/17 11:25:08;;;;;;;3.72;3.13;;;;;;;;;;4921012;29;20237;-84
2021/08/17 11:27:39;;;;;;;4.57;4.13;;;;;;;;;;4921139;29;20217;-85
2021/08/17 11:30:10;;;;;;;4.78;4.30;;;;;;;;;;4921546;29;20195;-83
2021/08/17 11:32:40;;;;;;;3.38;3.08;;;;;;;;;;4914665;29;20202;-85
2021/08/17 11:35:12;;;;;;;4.50;4.10;;;;;;;;;;4911757;29;20219;-83
2021/08/17 11:37:42;;;;;;;4.63;3.90;;;;;;;;;;4919960;29;20198;-84
2021/08/17 11:40:13;;;;;;;5.40;4.90;;;;;;;;;;4912325;29;20196;-85
2021/08/17 11:42:43;;;;;;;4.78;3.92;;;;;;;;;;4902128;29;20381;-84
2021/08/17 11:45:17;;;;;;;4.68;4.07;;;;;;;;;;4909686;29;20218;-84
2021/08/17 11:47:48;;;;;;;5.07;4.05;;;;;;;;;;4920251;29;20201;-84
2021/08/17 11:50:18;;;;;;;4.50;3.92;;;;;;;;;;4920502;29;20283;-84
2021/08/17 11:52:47;;;;;;;3.63;3.33;;;;;;;;;;4914317;29;20560;-86
2021/08/17 11:55:18;;;;;;;5.07;4.50;;;;;;;;;;4910769;29;20227;-84
2021/08/17 11:57:49;;;;;;;6.20;5.00;;;;;;;;;;4903566;29;20195;-84
2021/08/17 12:00:19;;;;;;;8.07;5.05;;;;;;;;;;4917992;29;20250;-85
2021/08/17 12:02:50;;;;;;;4.93;4.43;;;;;;;;;;4914254;29;20210;-83
2021/08/17 12:05:22;;;;;;;5.30;4.43;;;;;;;;;;4913248;29;20218;-85
2021/08/17 12:07:51;;;;;;;4.95;4.35;;;;;;;;;;4922001;29;20207;-85
2021/08/17 12:10:23;;;;;;;5.88;4.70;;;;;;;;;;4920779;29;20215;-85
2021/08/17 12:13:02;;;;;;;6.07;4.93;;;;;;;;;;4920522;29;20212;-86
2021/08/17 12:15:36;;;;;;;4.30;3.90;;;;;;;;;;4921628;29;20229;-85
2021/08/17 12:18:08;;;;;;;6.30;5.00;;;;;;;;;;4922191;29;20186;-85
2021/08/17 12:20:38;;;;;;;5.53;5.03;;;;;;;;;;4922061;29;20285;-83
2021/08/17 12:23:17;;;;;;;5.10;4.60;;;;;;;;;;4924015;29;20183;-83
2021/08/17 12:25:47;;;;;;;6.32;5.72;;;;;;;;;;4928409;29;20229;-85
2021/08/17 12:28:32;;;;;;;4.65;3.90;;;;;;;;;;4927408;29;20198;-84
2021/08/17 12:31:16;;;;;;;5.80;4.82;;;;;;;;;;4919834;29;20199;-83
2021/08/17 12:33:50;;;;;;;5.50;4.63;;;;;;;;;;4905847;29;20202;-83
2021/08/17 12:36:18;;;;;;;5.85;5.35;;;;;;;;;;4913764;29;20387;-86
2021/08/17 12:38:46;;;;;;;5.65;5.03;;;;;;;;;;4920320;29;20198;-84
2021/08/17 12:41:32;;;;;;;7.63;5.85;;;;;;;;;;4912685;29;20199;-83
2021/08/17 12:44:00;;;;;;;6.93;6.22;;;;;;;;;;4901124;29;20214;-84
2021/08/17 12:46:28;;;;;;;5.53;5.03;;;;;;;;;;4915470;29;20784;-85
2021/08/17 12:49:01;;;;;;;5.85;5.30;;;;;;;;;;4919671;29;20226;-84
2021/08/17 12:51:31;;;;;;;7.78;5.38;;;;;;;;;;4918886;29;20191;-85
2021/08/17 12:53:59;;;;;;;4.85;4.32;;;;;;;;;;4917826;29;20254;-84
2021/08/17 12:56:26;;;;;;;7.03;5.10;;;;;;;;;;4908175;29;20206;-83
2021/08/17 12:58:55;;;;;;;5.20;4.25;;;;;;;;;;4914378;29;20573;-84
2021/08/17 13:01:22;;;;;;;6.38;5.10;;;;;;;;;;4899502;29;20207;-84
2021/08/17 13:03:50;;;;;;;5.80;5.25;;;;;;;;;;4900281;29;20195;-84
2021/08/17 13:06:17;;;;;;;5.93;5.38;;;;;;;;;;4899298;29;20262;-86
2021/08/17 13:08:45;;;;;;;5.93;5.32;;;;;;;;;;4899666;29;20188;-84
2021/08/17 13:11:16;;;;;;;6.68;5.63;;;;;;;;;;4908631;29;20215;-86
2021/08/17 13:13:44;;;;;;;6.07;5.45;;;;;;;;;;4899547;29;20290;-85
2021/08/17 13:16:17;;;;;;;6.38;5.72;;;;;;;;;;4916323;29;20226;-84
2021/08/17 13:19:22;;;;;;;7.30;6.53;;;;;;;;;;4918267;29;20197;-85
2021/08/17 13:21:50;;;;;;;6.40;5.70;;;;;;;;;;4914748;29;20209;-85
2021/08/17 13:24:17;;;;;;;6.43;5.55;;;;;;;;;;4904947;29;20230;-85
2021/08/17 13:26:45;;;;;;;6.25;5.47;;;;;;;;;;4918094;29;20253;-85
2021/08/17 13:29:13;;;;;;;6.82;6.13;;;;;;;;;;4918176;29;20285;-85
2021/08/17 13:31:42;;;;;;;6.90;6.25;;;;;;;;;;4917914;29;20205;-85
2021/08/17 13:34:09;;;;;;;5.82;5.22;;;;;;;;;;4917229;29;20217;-86
2021/08/17 13:36:37;;;;;;;8.20;5.63;;;;;;;;;;4917596;29;20237;-84
2021/08/17 13:39:05;;;;;;;10.38;6.50;;;;;;;;;;4903169;29;20213;-85
2021/08/17 13:41:33;;;;;;;6.07;5.30;;;;;;;;;;4898666;29;20587;-85
2021/08/17 13:44:00;;;;;;;6.13;5.53;;;;;;;;;;4898098;29;20225;-84
2021/08/17 13:46:28;;;;;;;7.85;6.78;;;;;;;;;;4898401;29;20222;-85
2021/08/17 13:48:57;;;;;;;7.18;6.20;;;;;;;;;;4898338;29;20183;-84
2021/08/17 13:51:25;;;;;;;5.60;5.03;;;;;;;;;;4898150;29;20674;-85
2021/08/17 13:53:53;;;;;;;6.97;6.03;;;;;;;;;;4898298;29;20191;-88
2021/08/17 13:56:22;;;;;;;6.70;6.00;;;;;;;;;;4916130;29;20222;-86
2021/08/17 13:58:50;;;;;;;5.88;4.97;;;;;;;;;;4918049;29;20207;-84
2021/08/17 14:01:20;;;;;;;5.50;4.90;;;;;;;;;;4917356;29;20900;-86
2021/08/17 14:03:49;;;;;;;5.28;4.57;;;;;;;;;;4917730;29;20201;-84
2021/08/17 14:06:18;;;;;;;6.28;5.68;;;;;;;;;;4918057;29;20307;-85
2021/08/17 14:08:46;;;;;;;5.93;4.63;;;;;;;;;;4918231;29;20221;-84
2021/08/17 14:11:15;;;;;;;7.38;6.68;;;;;;;;;;4918568;29;20186;-84
2021/08/17 14:13:43;;;;;;;6.43;5.72;;;;;;;;;;4918409;29;20187;-84
2021/08/17 14:16:10;;;;;;;4.90;4.30;;;;;;;;;;4917744;29;20222;-83
2021/08/17 14:18:42;;;;;;;6.13;5.32;;;;;;;;;;4917249;29;20563;-84
2021/08/17 14:21:15;;;;;;;5.72;4.45;;;;;;;;;;4918727;29;20191;-84
2021/08/17 14:23:44;;;;;;;5.03;4.53;;;;;;;;;;4919338;29;20187;-83
2021/08/17 14:26:15;;;;;;;5.40;4.88;;;;;;;;;;4919029;29;20218;-82
2021/08/17 14:28:43;;;;;;;5.18;4.30;;;;;;;;;;4919708;29;20704;-83
2021/08/17 14:31:11;;;;;;;5.85;4.05;;;;;;;;;;4920685;29;20285;-84
2021/08/17 14:33:39;;;;;;;6.30;5.00;;;;;;;;;;4918927;29;20191;-82
2021/08/17 14:36:06;;;;;;;5.28;4.53;;;;;;;;;;4922994;29;20622;-83
2021/08/17 14:38:36;;;;;;;5.43;4.65;;;;;;;;;;4920568;29;20213;-82
2021/08/17 14:41:05;;;;;;;5.07;4.57;;;;;;;;;;4901341;29;20770;-84
2021/08/17 14:43:32;;;;;;;9.48;5.38;;;;;;;;;;4909986;29;20194;-84
2021/08/17 14:46:09;;;;;;;6.22;4.53;;;;;;;;;;4918173;29;20229;-84
2021/08/17 14:48:37;;;;;;;4.88;4.38;;;;;;;;;;4915783;29;20217;-84
2021/08/17 14:51:04;;;;;;;5.32;4.18;;;;;;;;;;4921400;29;20187;-83
2021/08/17 14:53:32;;;;;;;3.80;3.30;;;;;;;;;;4921864;29;20190;-84
2021/08/17 14:55:59;;;;;;;4.72;3.55;;;;;;;;;;4923687;29;20225;-84
2021/08/17 14:58:28;;;;;;;6.30;5.18;;;;;;;;;;4924326;29;20642;-84
2021/08/17 15:00:55;;;;;;;4.82;4.22;;;;;;;;;;4924826;29;20649;-83
2021/08/17 15:03:23;;;;;;;4.20;3.58;;;;;;;;;;4915847;29;20195;-84
2021/08/17 15:05:50;;;;;;;6.13;5.53;;;;;;;;;;4934489;29;20222;-84
2021/08/17 15:08:18;;;;;;;6.53;5.70;;;;;;;;;;4943178;29;20692;-84